Time;durP1;ratioP1;P1;durP2;ratioP2;P2;SDS_P1;SDS_P2;PMS_P1;PMS_P2;Temp;Humidity;BMP_temperature;BMP_pressure;BME280_temperature;BME280_humidity;BME280_pressure;Samples;Min_cycle;Max_cycle;Signal;HPM_P1;HPM_P2
2021/09/29 00:00:10;;;;;;;;;;;14.00;99.90;;;;;;4997001;28;20550;-73
2021/09/29 00:02:37;;;;;;;;;;;14.00;99.90;;;;;;5015246;28;20496;-73
2021/09/29 00:05:09;;;;;;;;;;;14.00;99.90;;;;;;5004776;28;19948;-73
2021/09/29 00:07:40;;;;;;;;;;;14.10;99.90;;;;;;4994598;28;19926;-73
2021/09/29 00:10:07;;;;;;;;;;;14.10;99.90;;;;;;4997194;28;19960;-74
2021/09/29 00:12:34;;;;;;;;;;;14.00;99.90;;;;;;5014463;28;19961;-74
2021/09/29 00:15:09;;;;;;;;;;;14.00;99.90;;;;;;4985825;28;19933;-73
2021/09/29 00:17:42;;;;;;;;;;;14.00;99.90;;;;;;4995118;28;19932;-73
2021/09/29 00:20:10;;;;;;;;;;;14.00;99.90;;;;;;4977365;28;19933;-74
2021/09/29 00:22:42;;;;;;;;;;;13.90;99.90;;;;;;4978378;28;19926;-74
2021/09/29 00:25:10;;;;;;;;;;;13.90;99.90;;;;;;5005354;28;19925;-74
2021/09/29 00:27:37;;;;;;;;;;;14.00;99.90;;;;;;4996686;28;20395;-75
2021/09/29 00:30:11;;;;;;;;;;;13.90;99.90;;;;;;4986051;28;20414;-73
2021/09/29 00:32:43;;;;;;;;;;;13.90;99.90;;;;;;4977500;28;19973;-73
2021/09/29 00:35:11;;;;;;;;;;;13.90;99.90;;;;;;5004832;28;19976;-74
2021/09/29 00:37:44;;;;;;;;;;;13.90;99.90;;;;;;4996717;28;19936;-73
2021/09/29 00:40:15;;;;;;;;;;;13.90;99.90;;;;;;5001692;28;19993;-73
2021/09/29 00:42:47;;;;;;;;;;;13.90;99.90;;;;;;4976338;28;20025;-73
2021/09/29 00:45:19;;;;;;;;;;;14.00;99.90;;;;;;4985417;28;20016;-73
2021/09/29 00:47:50;;;;;;;;;;;14.00;99.90;;;;;;4997189;28;19965;-74
2021/09/29 00:50:22;;;;;;;;;;;13.90;99.90;;;;;;4977178;28;19988;-73
2021/09/29 00:52:49;;;;;;;;;;;14.00;99.90;;;;;;4976689;28;19969;-74
2021/09/29 00:55:20;;;;;;;;;;;14.00;99.90;;;;;;4976636;28;20017;-73
2021/09/29 00:57:52;;;;;;;;;;;14.00;99.90;;;;;;4976758;28;19965;-74
2021/09/29 01:00:24;;;;;;;;;;;14.00;99.90;;;;;;4960705;28;19977;-73
2021/09/29 01:02:55;;;;;;;;;;;14.00;99.90;;;;;;4977152;28;19930;-74
2021/09/29 01:05:22;;;;;;;;;;;14.00;99.90;;;;;;4987668;28;20028;-74
2021/09/29 01:07:55;;;;;;;;;;;14.00;99.90;;;;;;4996310;28;19925;-74
2021/09/29 01:10:25;;;;;;;;;;;14.00;99.90;;;;;;4986398;28;19925;-74
2021/09/29 01:13:04;;;;;;;;;;;14.00;99.90;;;;;;4977418;28;19961;-74
2021/09/29 01:15:33;;;;;;;;;;;14.00;99.90;;;;;;4976488;28;19933;-74
2021/09/29 01:18:06;;;;;;;;;;;14.00;99.90;;;;;;4975963;28;19926;-74
2021/09/29 01:20:47;;;;;;;;;;;14.00;99.90;;;;;;4993192;28;19925;-74
2021/09/29 01:23:33;;;;;;;;;;;14.00;99.90;;;;;;4975907;28;20012;-73
2021/09/29 01:26:06;;;;;;;;;;;14.00;99.90;;;;;;4964632;28;20038;-73
2021/09/29 01:28:41;;;;;;;;;;;14.00;99.90;;;;;;4976555;28;19936;-74
2021/09/29 01:31:08;;;;;;;;;;;13.90;99.90;;;;;;4993844;28;20467;-74
2021/09/29 01:33:41;;;;;;;;;;;13.90;99.90;;;;;;4976074;28;20397;-74
2021/09/29 01:36:13;;;;;;;;;;;14.00;99.90;;;;;;4993627;28;19929;-73
2021/09/29 01:38:49;;;;;;;;;;;14.00;99.90;;;;;;5012835;28;19932;-74
2021/09/29 01:41:22;;;;;;;;;;;14.00;99.90;;;;;;4996596;28;20031;-73
2021/09/29 01:43:54;;;;;;;;;;;14.10;99.90;;;;;;4994072;28;20415;-74
2021/09/29 01:46:27;;;;;;;;;;;14.10;99.90;;;;;;4994052;28;19980;-73
2021/09/29 01:48:54;;;;;;;;;;;14.10;99.90;;;;;;4995066;28;20400;-74
2021/09/29 01:51:22;;;;;;;;;;;14.10;99.90;;;;;;4983739;28;19926;-74
2021/09/29 01:53:55;;;;;;;;;;;14.00;99.90;;;;;;4959438;28;19936;-73
2021/09/29 01:56:27;;;;;;;;;;;14.00;99.90;;;;;;4995238;28;19932;-74
2021/09/29 01:58:54;;;;;;;;;;;14.00;99.90;;;;;;4994861;28;20378;-73
2021/09/29 02:01:25;;;;;;;;;;;14.00;99.90;;;;;;4985049;28;19973;-73
2021/09/29 02:03:57;;;;;;;;;;;14.00;99.90;;;;;;4960064;28;19980;-73
2021/09/29 02:06:24;;;;;;;;;;;14.00;99.90;;;;;;5000816;28;19930;-74
2021/09/29 02:08:50;;;;;;;;;;;14.00;99.90;;;;;;4975361;28;19926;-73
2021/09/29 02:11:22;;;;;;;;;;;14.10;99.90;;;;;;4975503;28;20052;-73
2021/09/29 02:13:54;;;;;;;;;;;14.00;99.90;;;;;;4975123;28;20412;-73
2021/09/29 02:16:20;;;;;;;;;;;14.00;99.90;;;;;;4955864;28;20389;-73
2021/09/29 02:18:47;;;;;;;;;;;14.00;99.90;;;;;;4971473;28;20336;-72
2021/09/29 02:21:19;;;;;;;;;;;14.00;99.90;;;;;;4989444;28;20040;-73
2021/09/29 02:23:45;;;;;;;;;;;14.00;99.90;;;;;;5012351;28;20450;-73
2021/09/29 02:26:12;;;;;;;;;;;14.00;99.90;;;;;;4994223;28;19961;-73
2021/09/29 02:28:39;;;;;;;;;;;14.00;99.90;;;;;;4967103;28;20020;-73
2021/09/29 02:31:05;;;;;;;;;;;14.00;99.90;;;;;;5010294;28;19967;-73
2021/09/29 02:33:32;;;;;;;;;;;14.00;99.90;;;;;;4992742;28;20048;-73
2021/09/29 02:35:59;;;;;;;;;;;13.90;99.90;;;;;;4996083;28;20385;-73
2021/09/29 02:38:30;;;;;;;;;;;14.00;99.90;;;;;;4975068;28;19996;-72
2021/09/29 02:41:02;;;;;;;;;;;14.00;99.90;;;;;;4975615;28;20415;-72
2021/09/29 02:43:34;;;;;;;;;;;14.00;99.90;;;;;;4974148;28;19929;-73
2021/09/29 02:46:06;;;;;;;;;;;13.90;99.90;;;;;;4974211;28;20024;-73
2021/09/29 02:48:32;;;;;;;;;;;13.80;99.90;;;;;;4993937;28;19925;-73
2021/09/29 02:51:04;;;;;;;;;;;13.70;99.90;;;;;;5010589;28;19930;-73
2021/09/29 02:53:32;;;;;;;;;;;13.70;99.90;;;;;;5010920;28;19933;-73
2021/09/29 02:56:00;;;;;;;;;;;13.70;99.90;;;;;;5005972;28;19931;-73
2021/09/29 02:58:32;;;;;;;;;;;13.60;99.90;;;;;;4994404;28;20024;-73
2021/09/29 03:00:59;;;;;;;;;;;13.70;99.90;;;;;;4963229;28;20032;-73
2021/09/29 03:03:32;;;;;;;;;;;13.60;99.90;;;;;;5010374;28;19925;-73
2021/09/29 03:06:03;;;;;;;;;;;13.70;99.90;;;;;;4996388;28;19956;-73
2021/09/29 03:08:35;;;;;;;;;;;13.70;99.90;;;;;;4975509;28;20016;-73
2021/09/29 03:11:08;;;;;;;;;;;13.70;99.90;;;;;;4974572;28;20021;-73
2021/09/29 03:13:42;;;;;;;;;;;13.70;99.90;;;;;;4974803;28;20357;-72
2021/09/29 03:16:15;;;;;;;;;;;13.70;99.90;;;;;;4982813;28;20384;-74
2021/09/29 03:18:42;;;;;;;;;;;13.70;99.90;;;;;;5011669;28;20037;-73
2021/09/29 03:21:09;;;;;;;;;;;13.70;99.90;;;;;;4975185;28;19965;-73
2021/09/29 03:23:41;;;;;;;;;;;13.80;99.90;;;;;;4959579;28;20407;-73
2021/09/29 03:26:12;;;;;;;;;;;13.70;99.90;;;;;;4972888;28;20418;-73
2021/09/29 03:28:39;;;;;;;;;;;13.70;99.90;;;;;;4985586;28;20016;-73
2021/09/29 03:31:06;;;;;;;;;;;13.70;99.90;;;;;;4965652;28;19932;-73
2021/09/29 03:33:37;;;;;;;;;;;13.70;99.90;;;;;;4990775;28;19952;-73
2021/09/29 03:36:09;;;;;;;;;;;13.70;99.90;;;;;;4978230;28;19931;-73
2021/09/29 03:38:41;;;;;;;;;;;13.70;99.90;;;;;;4995879;28;19926;-73
2021/09/29 03:41:08;;;;;;;;;;;13.70;99.90;;;;;;4996347;28;19964;-72
2021/09/29 03:43:39;;;;;;;;;;;13.70;99.90;;;;;;4974019;28;19926;-73
2021/09/29 03:46:06;;;;;;;;;;;13.70;99.90;;;;;;5005070;28;19926;-73
2021/09/29 03:48:32;;;;;;;;;;;13.70;99.90;;;;;;4994975;28;19932;-73
2021/09/29 03:51:04;;;;;;;;;;;13.70;99.90;;;;;;4974008;28;19976;-73
2021/09/29 03:53:31;;;;;;;;;;;13.60;99.90;;;;;;4965733;28;20360;-73
2021/09/29 03:56:03;;;;;;;;;;;13.60;99.90;;;;;;4983796;28;20304;-73
2021/09/29 03:58:34;;;;;;;;;;;13.60;99.90;;;;;;4962325;28;20357;-73
2021/09/29 04:01:01;;;;;;;;;;;13.60;99.90;;;;;;4995619;28;20029;-74
2021/09/29 04:03:29;;;;;;;;;;;13.60;99.90;;;;;;4977393;28;19933;-74
2021/09/29 04:06:00;;;;;;;;;;;13.60;99.90;;;;;;4977799;28;19980;-74
2021/09/29 04:08:32;;;;;;;;;;;13.60;99.90;;;;;;4992930;28;19925;-74
2021/09/29 04:10:59;;;;;;;;;;;13.60;99.90;;;;;;4984358;28;19933;-74
2021/09/29 04:13:31;;;;;;;;;;;13.60;99.90;;;;;;4977280;28;20488;-74
2021/09/29 04:16:03;;;;;;;;;;;13.60;99.90;;;;;;4992992;28;20460;-74
2021/09/29 04:18:30;;;;;;;;;;;13.50;99.90;;;;;;4981243;28;19932;-74
2021/09/29 04:21:01;;;;;;;;;;;13.50;99.90;;;;;;5009400;28;20317;-74
2021/09/29 04:23:28;;;;;;;;;;;13.50;99.90;;;;;;4982743;28;20019;-74
2021/09/29 04:25:55;;;;;;;;;;;13.40;99.90;;;;;;4993930;28;19926;-73
2021/09/29 04:28:27;;;;;;;;;;;13.40;99.90;;;;;;4980563;28;19929;-73
2021/09/29 04:30:53;;;;;;;;;;;13.40;99.90;;;;;;4996213;28;20337;-73
2021/09/29 04:33:20;;;;;;;;;;;13.40;99.90;;;;;;4981442;28;19926;-74
2021/09/29 04:35:52;;;;;;;;;;;13.40;99.90;;;;;;4977620;28;19925;-73
2021/09/29 04:38:23;;;;;;;;;;;13.40;99.90;;;;;;4987044;28;20291;-73
2021/09/29 04:40:55;;;;;;;;;;;13.40;99.90;;;;;;4980735;28;19926;-74
2021/09/29 04:43:22;;;;;;;;;;;13.30;99.90;;;;;;4996602;28;20023;-73
2021/09/29 04:45:54;;;;;;;;;;;13.40;99.90;;;;;;4995694;28;19957;-74
2021/09/29 04:48:26;;;;;;;;;;;13.30;99.90;;;;;;4994031;28;19969;-73
2021/09/29 04:50:57;;;;;;;;;;;13.30;99.90;;;;;;4995913;28;20012;-74
2021/09/29 04:53:24;;;;;;;;;;;13.20;99.90;;;;;;4995049;28;20351;-73
2021/09/29 04:55:59;;;;;;;;;;;13.20;99.90;;;;;;4996744;28;19963;-74
2021/09/29 04:58:31;;;;;;;;;;;13.20;99.90;;;;;;4996410;28;19926;-73
2021/09/29 05:01:04;;;;;;;;;;;13.20;99.90;;;;;;4994553;28;20016;-73
2021/09/29 05:03:33;;;;;;;;;;;13.20;99.90;;;;;;4980967;28;20392;-73
2021/09/29 05:05:59;;;;;;;;;;;13.20;99.90;;;;;;5011131;28;19925;-73
2021/09/29 05:08:28;;;;;;;;;;;13.20;99.90;;;;;;4990555;28;20311;-74
2021/09/29 05:11:20;;;;;;;;;;;13.20;99.90;;;;;;4989003;28;19965;-74
2021/09/29 05:13:52;;;;;;;;;;;13.20;99.90;;;;;;4983450;28;19925;-73
2021/09/29 05:16:18;;;;;;;;;;;13.20;99.90;;;;;;4983462;28;19926;-74
2021/09/29 05:18:45;;;;;;;;;;;13.10;99.90;;;;;;4977728;28;19969;-73
2021/09/29 05:21:12;;;;;;;;;;;13.10;99.90;;;;;;4960138;28;19976;-74
2021/09/29 05:23:40;;;;;;;;;;;13.10;99.90;;;;;;4993540;28;20016;-73
2021/09/29 05:26:14;;;;;;;;;;;13.00;99.90;;;;;;4976799;28;19932;-73
2021/09/29 05:28:41;;;;;;;;;;;13.10;99.90;;;;;;4960429;28;19925;-73
2021/09/29 05:31:12;;;;;;;;;;;13.10;99.90;;;;;;4983336;28;19932;-74
2021/09/29 05:33:44;;;;;;;;;;;13.00;99.90;;;;;;4981812;28;19952;-73
2021/09/29 05:36:16;;;;;;;;;;;13.00;99.90;;;;;;4985613;28;19934;-73
2021/09/29 05:38:43;;;;;;;;;;;13.00;99.90;;;;;;4993106;28;19932;-73
2021/09/29 05:41:15;;;;;;;;;;;13.00;99.90;;;;;;4988259;28;19929;-73
2021/09/29 05:43:41;;;;;;;;;;;13.00;99.90;;;;;;4978152;28;20012;-73
2021/09/29 05:46:13;;;;;;;;;;;12.90;99.90;;;;;;4977227;28;19968;-73
2021/09/29 05:48:45;;;;;;;;;;;13.00;99.90;;;;;;4973461;28;19925;-73
2021/09/29 05:51:12;;;;;;;;;;;13.00;99.90;;;;;;4975586;28;19926;-73
2021/09/29 05:53:43;;;;;;;;;;;13.00;99.90;;;;;;4975679;28;19933;-73
2021/09/29 05:56:10;;;;;;;;;;;13.00;99.90;;;;;;4975197;28;19926;-73
2021/09/29 05:58:37;;;;;;;;;;;13.00;99.90;;;;;;4975078;28;19976;-73
2021/09/29 06:01:04;;;;;;;;;;;12.90;99.90;;;;;;4975289;28;19929;-73
2021/09/29 06:03:36;;;;;;;;;;;13.00;99.90;;;;;;4976355;28;20026;-73
2021/09/29 06:06:02;;;;;;;;;;;13.10;99.90;;;;;;4975037;28;20384;-73
2021/09/29 06:08:34;;;;;;;;;;;13.10;99.90;;;;;;4992808;28;19984;-73
2021/09/29 06:11:01;;;;;;;;;;;13.10;99.90;;;;;;4970530;28;20384;-73
2021/09/29 06:13:33;;;;;;;;;;;13.10;99.90;;;;;;4975174;28;19932;-73
2021/09/29 06:16:06;;;;;;;;;;;13.10;99.90;;;;;;4969730;28;19972;-73
2021/09/29 06:18:36;;;;;;;;;;;13.20;99.90;;;;;;4975004;28;19959;-73
2021/09/29 06:21:04;;;;;;;;;;;13.20;99.90;;;;;;4959341;28;20024;-73
2021/09/29 06:23:36;;;;;;;;;;;13.20;99.90;;;;;;4972820;28;19926;-73
2021/09/29 06:26:02;;;;;;;;;;;13.20;99.90;;;;;;4991911;28;20021;-73
2021/09/29 06:28:37;;;;;;;;;;;13.20;99.90;;;;;;4975075;28;19937;-73
2021/09/29 06:31:05;;;;;;;;;;;13.20;99.90;;;;;;4974635;28;20016;-73
2021/09/29 06:33:36;;;;;;;;;;;13.30;99.90;;;;;;4975254;28;19926;-73
2021/09/29 06:36:04;;;;;;;;;;;13.30;99.90;;;;;;4974060;28;19925;-73
2021/09/29 06:38:31;;;;;;;;;;;13.30;99.90;;;;;;4991047;28;19980;-73
2021/09/29 06:40:58;;;;;;;;;;;13.30;99.90;;;;;;4990628;28;19926;-73
2021/09/29 06:43:25;;;;;;;;;;;13.40;99.90;;;;;;4958916;28;19980;-73
2021/09/29 06:45:56;;;;;;;;;;;13.40;99.90;;;;;;4973374;28;20007;-73
2021/09/29 06:48:28;;;;;;;;;;;13.40;99.90;;;;;;4975880;28;20028;-73
2021/09/29 06:50:55;;;;;;;;;;;13.30;99.90;;;;;;4990605;28;19968;-73
2021/09/29 06:53:23;;;;;;;;;;;13.30;99.90;;;;;;4996233;28;20016;-73
2021/09/29 06:55:55;;;;;;;;;;;13.30;99.90;;;;;;4974144;28;19936;-73
2021/09/29 06:58:26;;;;;;;;;;;13.30;99.90;;;;;;4991995;28;19925;-73
2021/09/29 07:00:58;;;;;;;;;;;13.40;99.90;;;;;;4959281;28;19964;-73
2021/09/29 07:03:25;;;;;;;;;;;13.40;99.90;;;;;;4958742;28;20032;-73
2021/09/29 07:05:57;;;;;;;;;;;13.50;99.90;;;;;;4975050;28;20025;-73
2021/09/29 07:08:24;;;;;;;;;;;13.60;99.90;;;;;;4969734;28;19973;-73
2021/09/29 07:10:51;;;;;;;;;;;13.60;99.90;;;;;;4976201;28;19957;-73
2021/09/29 07:13:22;;;;;;;;;;;13.70;99.90;;;;;;4988962;28;20004;-74
2021/09/29 07:15:54;;;;;;;;;;;13.80;99.90;;;;;;4974672;28;19926;-73
2021/09/29 07:18:31;;;;;;;;;;;13.80;99.90;;;;;;4979404;28;19926;-73
2021/09/29 07:20:59;;;;;;;;;;;13.80;99.90;;;;;;4958182;28;19926;-73
2021/09/29 07:23:31;;;;;;;;;;;13.80;99.90;;;;;;5007168;28;19926;-73
2021/09/29 07:26:03;;;;;;;;;;;13.80;99.90;;;;;;4979329;28;20022;-73
2021/09/29 07:28:30;;;;;;;;;;;13.90;99.90;;;;;;4998586;28;19993;-73
2021/09/29 07:31:02;;;;;;;;;;;13.80;99.90;;;;;;5010450;28;19925;-73
2021/09/29 07:33:35;;;;;;;;;;;13.80;99.90;;;;;;5013256;28;19932;-73
2021/09/29 07:36:08;;;;;;;;;;;13.80;99.90;;;;;;4981411;28;20416;-73
2021/09/29 07:38:35;;;;;;;;;;;13.80;99.90;;;;;;4982317;28;19973;-73
2021/09/29 07:41:07;;;;;;;;;;;13.70;99.90;;;;;;4984083;28;19929;-73
2021/09/29 07:43:33;;;;;;;;;;;13.70;99.90;;;;;;4994039;28;20028;-73
2021/09/29 07:46:05;;;;;;;;;;;13.90;99.90;;;;;;4991244;28;19934;-73
2021/09/29 07:48:32;;;;;;;;;;;14.00;99.90;;;;;;4977750;28;20021;-73
2021/09/29 07:51:04;;;;;;;;;;;14.20;99.90;;;;;;4997551;28;20020;-73
2021/09/29 07:53:31;;;;;;;;;;;14.20;99.90;;;;;;4996986;28;19926;-73
2021/09/29 07:55:58;;;;;;;;;;;14.30;99.90;;;;;;4967433;28;20016;-73
2021/09/29 07:58:25;;;;;;;;;;;14.30;99.90;;;;;;5007834;28;20312;-73
2021/09/29 08:00:52;;;;;;;;;;;14.40;99.90;;;;;;4986812;28;19958;-73
2021/09/29 08:03:18;;;;;;;;;;;14.50;99.90;;;;;;5015246;28;19925;-73
2021/09/29 08:05:45;;;;;;;;;;;14.50;99.90;;;;;;4996455;28;20024;-73
2021/09/29 08:08:17;;;;;;;;;;;14.50;99.90;;;;;;4996379;28;19932;-73
2021/09/29 08:10:49;;;;;;;;;;;14.50;99.90;;;;;;5013167;28;19932;-73
2021/09/29 08:13:20;;;;;;;;;;;14.50;99.90;;;;;;5014751;28;19931;-73
2021/09/29 08:15:47;;;;;;;;;;;14.50;99.90;;;;;;4995571;28;20392;-73
2021/09/29 08:18:19;;;;;;;;;;;14.60;99.90;;;;;;4992847;28;19979;-73
2021/09/29 08:20:52;;;;;;;;;;;14.60;99.90;;;;;;4977331;28;20024;-73
2021/09/29 08:23:40;;;;;;;;;;;14.70;99.90;;;;;;4996576;28;19972;-73
2021/09/29 08:26:57;;;;;;;;;;;14.80;99.90;;;;;;5007367;28;20040;-73
2021/09/29 08:34:45;;;;;;;;;;;15.00;99.90;;;;;;5002089;28;19926;-73
2021/09/29 08:44:59;;;;;;;;;;;15.40;99.90;;;;;;5009063;28;20016;-73
2021/09/29 08:51:18;;;;;;;;;;;15.50;99.90;;;;;;4999317;28;20017;-73
2021/09/29 08:53:29;;;;;;;;;;;15.60;99.90;;;;;;5005030;28;20391;-73
2021/09/29 09:15:51;;;;;;;;;;;15.60;99.90;;;;;;4972522;28;19926;-73
2021/09/29 09:18:18;;;;;;;;;;;15.50;99.90;;;;;;4971246;28;20016;-73
2021/09/29 09:21:03;;;;;;;;;;;15.50;99.90;;;;;;4973857;28;19926;-73
2021/09/29 09:23:40;;;;;;;;;;;15.50;99.90;;;;;;4993566;28;20118;-73
2021/09/29 09:26:10;;;;;;;;;;;15.50;99.90;;;;;;4994740;28;19926;-73
2021/09/29 09:28:37;;;;;;;;;;;15.50;99.90;;;;;;4982808;28;20345;-73
2021/09/29 09:31:11;;;;;;;;;;;15.70;99.90;;;;;;4992165;28;19936;-72
2021/09/29 09:33:47;;;;;;;;;;;15.90;99.90;;;;;;4981411;28;19929;-73
2021/09/29 09:36:25;;;;;;;;;;;16.00;99.90;;;;;;4993179;28;19925;-73
2021/09/29 09:38:52;;;;;;;;;;;16.10;99.90;;;;;;4973450;28;20024;-73
2021/09/29 09:41:24;;;;;;;;;;;16.20;99.90;;;;;;4996521;28;20025;-73
2021/09/29 09:43:58;;;;;;;;;;;16.30;99.90;;;;;;4975755;28;19957;-73
2021/09/29 09:46:25;;;;;;;;;;;16.40;99.90;;;;;;5000272;28;19929;-73
2021/09/29 09:49:03;;;;;;;;;;;16.40;99.90;;;;;;5004880;28;19932;-73
2021/09/29 09:51:32;;;;;;;;;;;16.30;99.90;;;;;;4996695;28;19937;-74
2021/09/29 09:54:03;;;;;;;;;;;16.30;99.90;;;;;;4994930;28;19926;-74
2021/09/29 09:56:32;;;;;;;;;;;16.40;99.90;;;;;;4994740;28;19932;-73
2021/09/29 09:58:58;;;;;;;;;;;16.50;99.90;;;;;;4995492;28;20455;-73
2021/09/29 10:01:31;;;;;;;;;;;16.60;99.90;;;;;;4982118;28;19932;-74
2021/09/29 10:04:09;;;;;;;;;;;16.70;99.90;;;;;;5012653;28;19926;-74
2021/09/29 10:06:41;;;;;;;;;;;16.80;99.90;;;;;;4976893;28;19948;-73
2021/09/29 10:23:10;;;;;;;;;;;16.90;99.90;;;;;;4995551;28;19980;-73
2021/09/29 10:28:38;;;;;;;;;;;16.60;99.90;;;;;;4993474;28;19968;-73
2021/09/29 10:31:24;;;;;;;;;;;16.70;99.90;;;;;;4982153;28;20020;-73
2021/09/29 10:33:59;;;;;;;;;;;16.70;99.90;;;;;;4982748;28;20443;-73
2021/09/29 10:44:30;;;;;;;;;;;16.50;99.90;;;;;;4974498;28;19932;-73
2021/09/29 10:47:28;;;;;;;;;;;16.50;99.90;;;;;;4983952;28;19932;-72
2021/09/29 11:30:19;;;;;;;;;;;17.60;99.90;;;;;;4948824;28;19957;-73
2021/09/29 11:35:29;;;;;;;;;;;17.50;99.90;;;;;;4979806;28;20396;-73
2021/09/29 11:38:30;;;;;;;;;;;17.40;99.90;;;;;;4982814;28;19929;-73
2021/09/29 12:09:07;;;;;;;;;;;18.60;99.90;;;;;;4990238;28;19937;-73
2021/09/29 12:11:55;;;;;;;;;;;18.50;99.90;;;;;;4957987;28;19926;-73
2021/09/29 12:14:27;;;;;;;;;;;18.50;99.90;;;;;;4974086;28;19941;-73
2021/09/29 12:16:59;;;;;;;;;;;18.60;99.90;;;;;;4977429;28;19933;-73
2021/09/29 12:19:27;;;;;;;;;;;18.60;99.90;;;;;;4977030;28;19953;-73
2021/09/29 12:22:03;;;;;;;;;;;18.60;99.90;;;;;;4971511;28;19925;-73
2021/09/29 12:27:21;;;;;;;;;;;18.60;99.90;;;;;;5014662;28;20011;-74
2021/09/29 12:29:51;;;;;;;;;;;18.70;99.90;;;;;;4993686;28;20316;-73
2021/09/29 12:35:09;;;;;;;;;;;18.90;99.90;;;;;;4976946;28;19933;-74
2021/09/29 12:37:36;;;;;;;;;;;18.90;99.90;;;;;;4977305;28;19926;-73
2021/09/29 12:40:11;;;;;;;;;;;19.00;99.90;;;;;;4994013;28;20059;-74
2021/09/29 12:42:39;;;;;;;;;;;19.00;99.90;;;;;;4976281;28;20484;-74
2021/09/29 12:45:06;;;;;;;;;;;19.00;99.90;;;;;;4993866;28;19932;-73
2021/09/29 12:50:44;;;;;;;;;;;18.90;99.90;;;;;;4979724;28;19932;-73
2021/09/29 12:53:15;;;;;;;;;;;18.90;99.90;;;;;;4976368;28;19930;-73
2021/09/29 12:55:46;;;;;;;;;;;18.90;99.90;;;;;;4976122;28;20020;-73
2021/09/29 12:58:12;;;;;;;;;;;18.90;99.90;;;;;;4976883;28;20017;-73
2021/09/29 13:00:44;;;;;;;;;;;18.90;99.90;;;;;;4977187;28;20297;-72
2021/09/29 13:03:16;;;;;;;;;;;19.00;99.90;;;;;;4992552;28;20397;-73
2021/09/29 13:05:43;;;;;;;;;;;19.00;99.90;;;;;;4989671;28;20005;-73
2021/09/29 13:08:10;;;;;;;;;;;19.00;99.90;;;;;;4976027;28;20028;-73
2021/09/29 13:10:37;;;;;;;;;;;19.00;99.90;;;;;;4994159;28;19933;-73
2021/09/29 13:13:04;;;;;;;;;;;19.10;99.90;;;;;;4976269;28;19933;-73
2021/09/29 13:15:40;;;;;;;;;;;19.10;99.90;;;;;;4976870;28;20369;-72
2021/09/29 13:18:18;;;;;;;;;;;19.30;99.90;;;;;;4962435;28;20006;-72
2021/09/29 13:21:05;;;;;;;;;;;19.30;99.90;;;;;;4976452;28;19926;-73
2021/09/29 13:23:50;;;;;;;;;;;19.30;99.90;;;;;;4976487;28;20317;-73
2021/09/29 13:35:11;;;;;;;;;;;19.30;99.90;;;;;;4976248;28;19980;-72
2021/09/29 13:37:32;;;;;;;;;;;19.10;99.90;;;;;;5007302;28;19948;-72
2021/09/29 13:39:59;;;;;;;;;;;19.20;99.90;;;;;;4995598;28;19933;-72
2021/09/29 13:42:30;;;;;;;;;;;19.00;99.90;;;;;;4997801;28;20311;-75
2021/09/29 13:45:06;;;;;;;;;;;18.90;99.90;;;;;;5001283;28;19929;-71
2021/09/29 13:47:38;;;;;;;;;;;18.70;99.90;;;;;;4980004;28;20300;-72
2021/09/29 13:50:05;;;;;;;;;;;18.60;99.90;;;;;;4975980;28;19926;-72
2021/09/29 13:52:32;;;;;;;;;;;18.40;99.90;;;;;;4991797;28;20304;-76
2021/09/29 13:55:03;;;;;;;;;;;18.30;99.90;;;;;;4993653;28;19929;-73
2021/09/29 13:57:43;;;;;;;;;;;18.30;99.90;;;;;;5009619;28;19926;-72
2021/09/29 14:00:30;;;;;;;;;;;18.30;99.90;;;;;;4986353;28;19933;-73
2021/09/29 14:31:04;;;;;;;;;;;19.50;99.90;;;;;;4965541;28;19926;-73
2021/09/29 14:33:38;;;;;;;;;;;19.50;99.90;;;;;;4992186;28;19932;-73
2021/09/29 14:36:05;;;;;;;;;;;19.40;99.90;;;;;;4974957;28;20369;-72
2021/09/29 14:38:32;;;;;;;;;;;19.30;99.90;;;;;;4984787;28;19930;-74
2021/09/29 14:41:04;;;;;;;;;;;19.20;99.90;;;;;;4983959;28;19925;-73
2021/09/29 14:43:35;;;;;;;;;;;19.30;99.90;;;;;;4986422;28;19930;-73
2021/09/29 14:46:02;;;;;;;;;;;19.40;99.90;;;;;;4977515;28;20416;-74
2021/09/29 14:48:29;;;;;;;;;;;19.50;99.90;;;;;;4993629;28;19929;-73
2021/09/29 14:51:06;;;;;;;;;;;19.50;99.90;;;;;;4996575;28;19956;-73
2021/09/29 14:53:34;;;;;;;;;;;19.60;99.90;;;;;;4985205;28;20285;-73
2021/09/29 14:56:01;;;;;;;;;;;19.60;99.90;;;;;;4977207;28;19926;-73
2021/09/29 14:58:28;;;;;;;;;;;19.60;99.90;;;;;;4974764;28;19930;-72
2021/09/29 15:00:55;;;;;;;;;;;19.60;99.90;;;;;;4987214;28;19930;-73
2021/09/29 15:03:26;;;;;;;;;;;19.80;99.90;;;;;;4971632;28;19925;-73
2021/09/29 15:05:54;;;;;;;;;;;20.10;99.90;;;;;;4976984;28;19933;-73
2021/09/29 15:08:26;;;;;;;;;;;20.10;99.90;;;;;;4973311;28;19980;-73
2021/09/29 15:10:58;;;;;;;;;;;20.20;99.90;;;;;;4992261;28;19949;-74
2021/09/29 15:13:34;;;;;;;;;;;20.40;99.90;;;;;;4989939;28;19930;-73
2021/09/29 15:16:06;;;;;;;;;;;20.60;99.90;;;;;;4975767;28;19926;-72
2021/09/29 15:18:58;;;;;;;;;;;20.70;99.90;;;;;;4985421;28;19929;-73
2021/09/29 15:24:25;;;;;;;;;;;20.50;99.90;;;;;;4974420;28;20399;-73
2021/09/29 15:30:10;;;;;;;;;;;20.30;99.90;;;;;;4990005;28;20371;-74
2021/09/29 15:46:15;;;;;;;;;;;20.00;99.90;;;;;;4993560;28;19953;-73
2021/09/29 15:52:05;;;;;;;;;;;18.30;99.90;;;;;;4993640;28;19932;-74
2021/09/29 15:54:41;;;;;;;;;;;18.10;99.90;;;;;;4976765;28;20024;-73
2021/09/29 16:02:37;;;;;;;;;;;17.90;99.90;;;;;;4993063;28;19930;-74
2021/09/29 16:13:19;;;;;;;;;;;16.90;99.90;;;;;;4972519;28;19927;-74
2021/09/29 16:18:43;;;;;;;;;;;16.10;99.90;;;;;;4977310;28;19926;-73
2021/09/29 16:32:09;;;;;;;;;;;15.20;99.90;;;;;;5014050;28;19960;-73
2021/09/29 16:34:59;;;;;;;;;;;15.10;99.90;;;;;;4983214;28;19932;-73
2021/09/29 16:37:31;;;;;;;;;;;15.10;99.90;;;;;;4975745;28;20500;-74
2021/09/29 16:39:59;;;;;;;;;;;15.10;99.90;;;;;;4987105;28;20650;-73
2021/09/29 16:42:26;;;;;;;;;;;15.00;99.90;;;;;;4974480;28;19925;-73
2021/09/29 16:44:52;;;;;;;;;;;15.00;99.90;;;;;;4996037;28;20340;-74
2021/09/29 16:47:25;;;;;;;;;;;14.90;99.90;;;;;;4993347;28;19926;-73
2021/09/29 16:49:57;;;;;;;;;;;14.90;99.90;;;;;;4962433;28;19930;-73
2021/09/29 16:52:29;;;;;;;;;;;14.80;99.90;;;;;;5001798;28;19930;-73
2021/09/29 16:54:58;;;;;;;;;;;14.60;99.90;;;;;;4970556;28;19937;-73
2021/09/29 16:57:32;;;;;;;;;;;14.20;99.90;;;;;;4979570;28;20389;-74
2021/09/29 17:00:10;;;;;;;;;;;13.80;99.90;;;;;;4974157;28;19926;-73
2021/09/29 17:02:42;;;;;;;;;;;13.40;99.90;;;;;;4992168;28;19932;-73
2021/09/29 17:05:09;;;;;;;;;;;13.10;99.90;;;;;;4973110;28;20376;-74
2021/09/29 17:07:41;;;;;;;;;;;12.90;99.90;;;;;;4970895;28;19937;-73
2021/09/29 17:10:12;;;;;;;;;;;12.80;99.90;;;;;;4986438;28;19930;-74
2021/09/29 17:12:46;;;;;;;;;;;12.70;99.90;;;;;;4980412;28;19926;-75
2021/09/29 17:15:18;;;;;;;;;;;12.60;99.90;;;;;;4972200;28;19926;-74
2021/09/29 17:17:45;;;;;;;;;;;12.70;99.90;;;;;;4982332;28;19926;-74
2021/09/29 17:20:17;;;;;;;;;;;12.70;99.90;;;;;;4980013;28;20280;-74
2021/09/29 17:22:49;;;;;;;;;;;12.60;99.90;;;;;;4991014;28;19934;-74
2021/09/29 17:25:15;;;;;;;;;;;12.70;99.90;;;;;;4972720;28;19926;-72
2021/09/29 17:27:42;;;;;;;;;;;12.70;99.90;;;;;;4977644;28;19925;-73
2021/09/29 17:30:11;;;;;;;;;;;12.70;99.90;;;;;;4978405;28;19926;-73
2021/09/29 17:33:07;;;;;;;;;;;12.70;99.90;;;;;;4992422;28;19934;-73
2021/09/29 17:54:48;;;;;;;;;;;13.30;99.90;;;;;;4991565;28;19937;-72
2021/09/29 17:57:20;;;;;;;;;;;13.50;99.90;;;;;;5012873;28;19926;-71
2021/09/29 17:59:53;;;;;;;;;;;13.60;99.90;;;;;;4978868;28;19930;-73
2021/09/29 18:02:24;;;;;;;;;;;13.70;99.90;;;;;;4976387;28;19926;-72
2021/09/29 18:04:51;;;;;;;;;;;13.80;99.90;;;;;;4993065;28;19934;-73
2021/09/29 18:09:48;;;;;;;;;;;13.80;99.90;;;;;;4973401;28;19925;-72
2021/09/29 18:12:20;;;;;;;;;;;13.60;99.90;;;;;;4990481;28;19937;-72
2021/09/29 18:14:48;;;;;;;;;;;13.40;99.90;;;;;;4990361;28;19932;-72
2021/09/29 18:17:20;;;;;;;;;;;13.30;99.90;;;;;;4986841;28;20392;-72
2021/09/29 18:19:52;;;;;;;;;;;13.20;99.90;;;;;;4978612;28;19925;-72
2021/09/29 18:22:19;;;;;;;;;;;13.20;99.90;;;;;;5011136;28;20028;-72
2021/09/29 18:24:51;;;;;;;;;;;13.10;99.90;;;;;;4992008;28;19932;-72
2021/09/29 18:27:22;;;;;;;;;;;13.00;99.90;;;;;;4983105;28;19930;-72
2021/09/29 18:29:50;;;;;;;;;;;13.00;99.90;;;;;;4973996;28;19926;-72
2021/09/29 18:32:16;;;;;;;;;;;13.00;99.90;;;;;;4973914;28;19926;-72
2021/09/29 18:34:49;;;;;;;;;;;12.90;99.90;;;;;;4974441;28;19933;-73
2021/09/29 18:37:24;;;;;;;;;;;12.90;99.90;;;;;;4991358;28;19929;-72
2021/09/29 18:39:52;;;;;;;;;;;12.70;99.90;;;;;;4975146;28;19925;-72
2021/09/29 18:42:20;;;;;;;;;;;12.70;99.90;;;;;;4989647;28;19926;-72
2021/09/29 18:44:48;;;;;;;;;;;12.60;99.90;;;;;;4972645;28;19936;-72
2021/09/29 18:47:15;;;;;;;;;;;12.60;99.90;;;;;;4989288;28;20384;-73